createdAt,value
2019-03-23T00:00:27.865Z,61.11
2019-03-23T00:01:27.833Z,61.63
2019-03-23T00:02:27.823Z,61.63
2019-03-23T00:03:27.811Z,61.22
2019-03-23T00:04:27.800Z,61.01
2019-03-23T00:05:27.806Z,61.45
2019-03-23T00:06:31.054Z,61.43
2019-03-23T00:07:27.765Z,61.66
2019-03-23T00:08:27.775Z,61.86
2019-03-23T00:09:27.745Z,61.76
2019-03-23T00:10:27.747Z,61.83
2019-03-23T00:11:27.717Z,60.68
2019-03-23T00:12:27.706Z,60.47
2019-03-23T00:13:27.697Z,60.06
2019-03-23T00:14:27.681Z,59.96
2019-03-23T00:15:27.689Z,59.55
2019-03-23T00:16:27.663Z,59.12
2019-03-23T00:17:27.672Z,58.70
2019-03-23T00:18:27.638Z,58.50
2019-03-23T00:19:27.626Z,58.50
2019-03-23T00:20:27.640Z,59.12
2019-03-23T00:21:27.608Z,59.32
2019-03-23T00:22:27.589Z,60.24
2019-03-23T00:23:27.577Z,59.86
2019-03-23T00:24:27.569Z,59.35
2019-03-23T00:25:27.574Z,59.55
2019-03-23T00:26:27.544Z,60.47
2019-03-23T00:27:27.531Z,60.58
2019-03-23T00:28:27.520Z,61.60
2019-03-23T00:29:27.508Z,61.52
2019-03-23T00:30:27.514Z,61.93
2019-03-23T00:31:27.489Z,61.73
2019-03-23T00:32:27.471Z,62.17
2019-03-23T00:33:27.477Z,61.96
2019-03-23T00:34:27.448Z,61.69
2019-03-23T00:35:27.455Z,61.89
2019-03-23T00:36:27.425Z,62.48
2019-03-23T00:37:27.429Z,62.71
2019-03-23T00:38:27.399Z,62.51
2019-03-23T00:39:27.389Z,62.63
2019-03-23T00:40:27.399Z,62.95
2019-03-23T00:41:27.366Z,62.95
2019-03-23T00:42:27.361Z,63.25
2019-03-23T00:43:27.341Z,63.35
2019-03-23T00:44:27.329Z,63.35
2019-03-23T00:45:27.318Z,63.25
2019-03-23T00:46:27.324Z,62.87
2019-03-23T00:47:27.295Z,63.46
2019-03-23T00:48:27.283Z,63.35
2019-03-23T00:49:27.272Z,63.35
2019-03-23T00:50:27.260Z,63.05
2019-03-23T00:51:27.265Z,63.56
2019-03-23T00:52:27.235Z,63.15
2019-03-23T00:53:27.249Z,63.25
2019-03-23T00:54:27.210Z,63.05
2019-03-23T00:55:27.195Z,63.66
2019-03-23T00:56:27.206Z,64.17
2019-03-23T00:57:27.173Z,65.00
2019-03-23T00:58:27.163Z,64.69
2019-03-23T00:59:27.155Z,64.82
2019-03-23T01:00:27.151Z,64.48
2019-03-23T01:01:27.149Z,64.82
2019-03-23T01:02:27.136Z,64.51
2019-03-23T01:03:27.101Z,65.23
2019-03-23T01:04:27.089Z,65.12
2019-03-23T01:05:27.080Z,64.61
2019-03-23T01:06:27.084Z,64.92
2019-03-23T01:07:27.074Z,64.82
2019-03-23T01:08:27.065Z,64.75
2019-03-23T01:09:27.426Z,65.47
2019-03-23T01:10:27.018Z,65.57
2019-03-23T01:11:27.013Z,65.91
2019-03-23T01:12:27.017Z,66.22
2019-03-23T01:13:26.980Z,67.03
2019-03-23T01:14:26.967Z,66.73
2019-03-23T01:15:26.956Z,67.24
2019-03-23T01:16:26.944Z,67.14
2019-03-23T01:17:26.952Z,67.24
2019-03-23T01:18:26.922Z,67.68
2019-03-23T01:19:26.909Z,67.24
2019-03-23T01:20:26.942Z,67.14
2019-03-23T01:21:26.885Z,67.55
2019-03-23T01:22:26.894Z,67.96
2019-03-23T01:23:26.860Z,68.57
2019-03-23T01:24:26.852Z,68.27
2019-03-23T01:25:26.840Z,68.16
2019-03-23T01:26:26.827Z,68.06
2019-03-23T01:27:26.833Z,67.86
2019-03-23T01:28:26.808Z,67.96
2019-03-23T01:29:26.787Z,67.89
2019-03-23T01:30:26.777Z,68.30
2019-03-23T01:31:26.775Z,68.30
2019-03-23T01:32:26.779Z,68.40
2019-03-23T01:33:26.742Z,68.30
2019-03-23T01:34:26.732Z,68.30
2019-03-23T01:35:26.717Z,68.51
2019-03-23T01:36:26.705Z,68.85
2019-03-23T01:37:26.692Z,69.64
2019-03-23T01:38:26.700Z,70.04
2019-03-23T01:39:26.667Z,71.79
2019-03-23T01:40:26.655Z,71.28
2019-03-23T01:41:26.646Z,70.84
2019-03-23T01:42:26.635Z,70.53
2019-03-23T01:43:26.640Z,71.04
2019-03-23T01:44:26.608Z,70.97
2019-03-23T01:45:26.601Z,70.97
2019-03-23T01:46:26.587Z,71.66
2019-03-23T01:47:26.574Z,72.68
2019-03-23T01:48:26.577Z,73.10
2019-03-23T01:49:26.545Z,74.12
2019-03-23T01:50:26.536Z,73.71
2019-03-23T01:51:26.523Z,73.91
2019-03-23T01:52:26.513Z,74.22
2019-03-23T01:53:26.523Z,73.91
2019-03-23T01:54:26.488Z,74.32
2019-03-23T01:55:26.489Z,73.71
2019-03-23T01:56:26.471Z,73.81
2019-03-23T01:57:26.454Z,74.43
2019-03-23T01:58:26.441Z,74.94
2019-03-23T01:59:26.447Z,75.38
2019-03-23T02:00:26.415Z,75.80
2019-03-23T02:01:26.410Z,76.00
2019-03-23T02:02:26.390Z,77.03
2019-03-23T02:03:26.382Z,77.03
2019-03-23T02:04:26.387Z,76.97
2019-03-23T02:05:26.355Z,77.55
2019-03-23T02:06:26.343Z,77.85
2019-03-23T02:07:26.331Z,77.99
2019-03-23T02:08:26.322Z,77.89
2019-03-23T02:09:26.370Z,78.50
2019-03-23T02:10:26.339Z,78.81
2019-03-23T02:11:26.283Z,78.61
2019-03-23T02:12:26.275Z,78.50
2019-03-23T02:13:26.263Z,79.43
2019-03-23T02:14:26.272Z,78.67
2019-03-23T02:15:26.238Z,79.02
2019-03-23T02:16:26.225Z,78.61
2019-03-23T02:17:26.212Z,79.05
2019-03-23T02:18:26.206Z,78.92
2019-03-23T02:19:26.232Z,78.61
2019-03-23T02:20:26.181Z,79.47
2019-03-23T02:21:26.165Z,79.26
2019-03-23T02:22:26.153Z,80.15
2019-03-23T02:23:26.143Z,79.53
2019-03-23T02:24:26.131Z,79.77
2019-03-23T02:25:26.138Z,80.08
2019-03-23T02:26:26.112Z,80.49
2019-03-23T02:27:26.096Z,80.29
2019-03-23T02:28:26.085Z,80.43
2019-03-23T02:29:26.073Z,80.80
2019-03-23T02:30:26.079Z,80.80
2019-03-23T02:31:26.048Z,81.01
2019-03-23T02:32:26.037Z,80.80
2019-03-23T02:33:26.022Z,80.53
2019-03-23T02:34:26.019Z,80.29
2019-03-23T02:35:26.018Z,80.80
2019-03-23T02:36:25.987Z,79.88
2019-03-23T02:37:33.021Z,81.05
2019-03-23T02:38:25.970Z,80.94
2019-03-23T02:39:25.969Z,80.53
2019-03-23T02:40:25.962Z,80.12
2019-03-23T02:41:25.935Z,80.12
2019-03-23T02:42:25.921Z,80.33
2019-03-23T02:43:25.908Z,80.33
2019-03-23T02:44:25.925Z,80.12
2019-03-23T02:45:25.989Z,80.63
2019-03-23T02:46:25.872Z,80.12
2019-03-23T02:47:25.865Z,80.53
2019-03-23T02:48:25.848Z,80.43
2019-03-23T02:49:25.838Z,80.33
2019-03-23T02:50:25.826Z,81.09
2019-03-23T02:51:25.844Z,81.15
2019-03-23T02:52:25.806Z,81.15
2019-03-23T02:53:25.788Z,81.87
2019-03-23T02:54:25.784Z,81.67
2019-03-23T02:55:25.772Z,81.35
2019-03-23T02:56:25.779Z,81.35
2019-03-23T02:57:25.742Z,81.35
2019-03-23T02:58:25.730Z,81.87
2019-03-23T02:59:25.718Z,82.18
2019-03-23T03:00:27.618Z,82.59
2019-03-23T03:01:25.728Z,82.69
2019-03-23T03:02:25.690Z,83.45
2019-03-23T03:03:25.676Z,83.55
2019-03-23T03:04:25.662Z,83.41
2019-03-23T03:05:25.650Z,83.86
2019-03-23T03:06:25.664Z,84.07
2019-03-23T03:07:25.624Z,84.38
2019-03-23T03:08:25.609Z,84.07
2019-03-23T03:09:25.616Z,84.17
2019-03-23T03:10:25.584Z,84.48
2019-03-23T03:11:25.594Z,84.62
2019-03-23T03:12:25.565Z,84.52
2019-03-23T03:13:25.573Z,84.31
2019-03-23T03:14:25.541Z,85.03
2019-03-23T03:15:25.529Z,84.62
2019-03-23T03:16:25.535Z,85.55
2019-03-23T03:17:25.507Z,86.00
2019-03-23T03:18:25.495Z,86.06
2019-03-23T03:19:25.494Z,85.89
2019-03-23T03:20:25.474Z,87.03
2019-03-23T03:21:25.476Z,86.93
2019-03-23T03:22:25.444Z,86.52
2019-03-23T03:23:25.436Z,87.44
2019-03-23T03:24:25.507Z,87.44
2019-03-23T03:25:25.415Z,87.44
2019-03-23T03:26:25.417Z,87.34
2019-03-23T03:27:25.394Z,87.85
2019-03-23T03:28:25.405Z,87.34
2019-03-23T03:29:25.365Z,87.75
2019-03-23T03:30:25.370Z,87.85
2019-03-23T03:31:25.368Z,87.44
2019-03-23T03:32:25.332Z,87.54
2019-03-23T03:33:25.344Z,87.54
2019-03-23T03:34:25.352Z,88.37
2019-03-23T03:35:25.307Z,87.65
2019-03-23T03:36:25.305Z,88.06
2019-03-23T03:37:25.274Z,88.12
2019-03-23T03:38:25.275Z,88.53
2019-03-23T03:39:25.284Z,87.40
2019-03-23T03:40:25.254Z,87.51
2019-03-23T03:41:25.245Z,87.71
2019-03-23T03:42:25.216Z,88.02
2019-03-23T03:43:25.206Z,87.40
2019-03-23T03:44:25.196Z,88.12
2019-03-23T03:45:25.183Z,88.12
2019-03-23T03:46:25.190Z,88.26
2019-03-23T03:47:25.157Z,88.02
2019-03-23T03:48:25.149Z,87.85
2019-03-23T03:49:25.154Z,88.43
2019-03-23T03:50:25.127Z,88.37
2019-03-23T03:51:25.130Z,88.06
2019-03-23T03:52:25.098Z,88.26
2019-03-23T03:53:25.090Z,88.26
2019-03-23T03:54:25.077Z,88.26
2019-03-23T03:55:25.068Z,87.85
2019-03-23T03:56:25.071Z,88.47
2019-03-23T03:57:25.042Z,87.96
2019-03-23T03:58:25.087Z,88.26
2019-03-23T03:59:25.021Z,88.78
2019-03-23T04:00:25.008Z,88.06
2019-03-23T04:01:25.013Z,88.17
2019-03-23T04:02:24.992Z,88.06
2019-03-23T04:03:24.975Z,88.47
2019-03-23T04:04:24.965Z,88.72
2019-03-23T04:05:24.949Z,88.47
2019-03-23T04:06:24.970Z,88.78
2019-03-23T04:07:24.937Z,88.20
2019-03-23T04:08:24.915Z,88.82
2019-03-23T04:09:24.901Z,89.03
2019-03-23T04:10:24.898Z,88.31
2019-03-23T04:11:24.905Z,89.23
2019-03-23T04:12:24.874Z,88.82
2019-03-23T04:13:24.855Z,89.13
2019-03-23T04:14:24.848Z,89.28
2019-03-23T04:15:24.834Z,89.89
2019-03-23T04:16:24.839Z,89.13
2019-03-23T04:17:24.814Z,89.79
2019-03-23T04:18:24.799Z,90.31
2019-03-23T04:19:24.789Z,89.79
2019-03-23T04:20:24.777Z,89.65
2019-03-23T04:21:24.797Z,89.79
2019-03-23T04:22:24.770Z,89.79
2019-03-23T04:23:24.744Z,89.75
2019-03-23T04:24:24.724Z,89.69
2019-03-23T04:25:24.712Z,90.10
2019-03-23T04:26:24.724Z,89.54
2019-03-23T04:27:24.692Z,90.16
2019-03-23T04:28:24.678Z,90.00
2019-03-23T04:29:24.665Z,90.10
2019-03-23T04:30:24.656Z,90.00
2019-03-23T04:31:24.658Z,89.75
2019-03-23T04:32:24.628Z,90.10
2019-03-23T04:33:24.617Z,90.06
2019-03-23T04:34:24.606Z,90.20
2019-03-23T04:35:24.593Z,90.10
2019-03-23T04:36:24.599Z,90.00
2019-03-23T04:37:24.568Z,90.20
2019-03-23T04:38:24.561Z,90.20
2019-03-23T04:39:24.547Z,90.41
2019-03-23T04:40:24.535Z,91.24
2019-03-23T04:41:24.541Z,91.24
2019-03-23T04:42:24.509Z,90.92
2019-03-23T04:43:24.504Z,90.61
2019-03-23T04:44:24.488Z,90.41
2019-03-23T04:45:24.474Z,90.20
2019-03-23T04:46:24.481Z,91.03
2019-03-23T04:47:24.453Z,90.92
2019-03-23T04:48:24.440Z,90.51
2019-03-23T04:49:24.427Z,90.72
2019-03-23T04:50:24.414Z,90.51
2019-03-23T04:51:24.422Z,90.45
2019-03-23T04:52:24.391Z,90.61
2019-03-23T04:53:24.377Z,90.82
2019-03-23T04:54:24.368Z,90.92
2019-03-23T04:55:24.354Z,90.82
2019-03-23T04:56:24.368Z,90.72
2019-03-23T04:57:24.333Z,90.78
2019-03-23T04:58:24.320Z,90.61
2019-03-23T04:59:24.308Z,90.26
2019-03-23T05:00:24.297Z,90.82
2019-03-23T05:01:24.306Z,90.31
2019-03-23T05:02:24.275Z,90.92
2019-03-23T05:03:24.263Z,90.51
2019-03-23T05:04:24.250Z,91.34
2019-03-23T05:05:24.236Z,91.44
2019-03-23T05:06:24.255Z,91.44
2019-03-23T05:07:24.265Z,91.13
2019-03-23T05:08:32.938Z,91.03
2019-03-23T05:09:25.191Z,91.34
2019-03-23T05:10:24.180Z,91.34
2019-03-23T05:11:24.185Z,90.26
2019-03-23T05:12:24.155Z,90.20
2019-03-23T05:13:24.146Z,90.31
2019-03-23T05:14:24.134Z,90.20
2019-03-23T05:15:24.126Z,90.00
2019-03-23T05:16:24.127Z,90.51
2019-03-23T05:17:24.135Z,90.31
2019-03-23T05:18:24.087Z,89.79
2019-03-23T05:19:24.075Z,90.10
2019-03-23T05:20:24.064Z,90.00
2019-03-23T05:21:24.071Z,90.31
2019-03-23T05:22:24.046Z,90.31
2019-03-23T05:23:24.035Z,90.61
2019-03-23T05:24:24.017Z,90.51
2019-03-23T05:25:24.006Z,90.41
2019-03-23T05:26:24.010Z,90.31
2019-03-23T05:27:23.980Z,90.10
2019-03-23T05:28:23.971Z,90.20
2019-03-23T05:29:23.958Z,89.95
2019-03-23T05:30:23.947Z,89.95
2019-03-23T05:31:23.955Z,89.48
2019-03-23T05:32:23.923Z,89.85
2019-03-23T05:33:23.913Z,89.65
2019-03-23T05:34:23.924Z,90.31
2019-03-23T05:35:23.890Z,89.79
2019-03-23T05:36:23.895Z,89.95
2019-03-23T05:37:23.866Z,89.79
2019-03-23T05:38:23.855Z,89.48
2019-03-23T05:39:23.841Z,90.10
2019-03-23T05:40:23.831Z,89.28
2019-03-23T05:41:23.839Z,90.20
2019-03-23T05:42:23.808Z,89.79
2019-03-23T05:43:23.796Z,90.20
2019-03-23T05:44:23.784Z,89.07
2019-03-23T05:45:23.777Z,88.86
2019-03-23T05:46:23.787Z,89.23
2019-03-23T05:47:23.754Z,89.38
2019-03-23T05:48:23.741Z,89.69
2019-03-23T05:49:23.736Z,88.56
2019-03-23T05:50:23.717Z,89.48
2019-03-23T05:51:23.735Z,89.58
2019-03-23T05:52:23.704Z,89.17
2019-03-23T05:53:23.692Z,89.58
2019-03-23T05:54:23.669Z,89.07
2019-03-23T05:55:23.659Z,89.23
2019-03-23T05:56:23.646Z,89.48
2019-03-23T05:57:23.663Z,89.54
2019-03-23T05:58:23.641Z,88.92
2019-03-23T05:59:23.613Z,89.58
2019-03-23T06:00:23.606Z,89.54
2019-03-23T06:01:23.589Z,89.58
2019-03-23T06:02:23.599Z,88.45
2019-03-23T06:03:23.581Z,88.51
2019-03-23T06:04:23.555Z,88.04
2019-03-23T06:05:24.710Z,88.86
2019-03-23T06:06:23.532Z,88.45
2019-03-23T06:07:23.555Z,88.72
2019-03-23T06:08:23.511Z,88.51
2019-03-23T06:09:23.498Z,88.51
2019-03-23T06:10:23.487Z,88.31
2019-03-23T06:11:23.477Z,88.51
2019-03-23T06:12:23.481Z,88.72
2019-03-23T06:13:23.454Z,88.62
2019-03-23T06:14:23.450Z,87.99
2019-03-23T06:15:23.431Z,88.41
2019-03-23T06:16:23.416Z,87.48
2019-03-23T06:17:23.428Z,87.90
2019-03-23T06:18:23.395Z,88.20
2019-03-23T06:19:23.387Z,88.41
2019-03-23T06:20:23.375Z,88.89
2019-03-23T06:21:23.363Z,88.78
2019-03-23T06:22:23.368Z,88.26
2019-03-23T06:23:23.334Z,88.31
2019-03-23T06:24:23.330Z,88.26
2019-03-23T06:25:23.323Z,88.17
2019-03-23T06:26:23.301Z,87.65
2019-03-23T06:27:23.312Z,88.17
2019-03-23T06:28:23.282Z,87.34
2019-03-23T06:29:23.263Z,87.34
2019-03-23T06:30:23.259Z,87.30
2019-03-23T06:31:23.238Z,87.54
2019-03-23T06:32:23.248Z,87.65
2019-03-23T06:33:23.219Z,87.40
2019-03-23T06:34:23.206Z,86.99
2019-03-23T06:35:23.196Z,87.13
2019-03-23T06:36:23.183Z,87.03
2019-03-23T06:37:23.190Z,86.93
2019-03-23T06:38:23.160Z,87.24
2019-03-23T06:39:23.158Z,86.99
2019-03-23T06:40:23.148Z,86.88
2019-03-23T06:41:23.125Z,87.09
2019-03-23T06:42:23.137Z,87.09
2019-03-23T06:43:23.106Z,87.19
2019-03-23T06:44:23.089Z,87.30
2019-03-23T06:45:23.080Z,87.19
2019-03-23T06:46:23.071Z,86.99
2019-03-23T06:47:23.087Z,86.47
2019-03-23T06:48:23.051Z,86.68
2019-03-23T06:49:23.035Z,86.68
2019-03-23T06:50:23.021Z,86.58
2019-03-23T06:51:23.011Z,86.58
2019-03-23T06:52:23.019Z,86.68
2019-03-23T06:53:22.989Z,86.58
2019-03-23T06:54:22.974Z,86.68
2019-03-23T06:55:22.960Z,86.54
2019-03-23T06:56:22.957Z,87.01
2019-03-23T06:57:22.960Z,85.92
2019-03-23T06:58:22.928Z,85.47
2019-03-23T06:59:22.918Z,85.06
2019-03-23T07:00:22.907Z,85.26
2019-03-23T07:01:22.895Z,85.16
2019-03-23T07:02:22.906Z,84.85
2019-03-23T07:03:22.873Z,84.85
2019-03-23T07:04:22.861Z,84.64
2019-03-23T07:05:22.849Z,84.85
2019-03-23T07:06:22.835Z,84.03
2019-03-23T07:07:22.843Z,84.34
2019-03-23T07:08:31.593Z,84.85
2019-03-23T07:09:23.804Z,85.06
2019-03-23T07:10:22.791Z,84.64
2019-03-23T07:11:22.777Z,84.95
2019-03-23T07:12:22.783Z,84.95
2019-03-23T07:13:22.757Z,84.34
2019-03-23T07:14:22.745Z,83.89
2019-03-23T07:15:22.735Z,84.03
2019-03-23T07:16:24.864Z,84.03
2019-03-23T07:17:22.731Z,84.54
2019-03-23T07:18:22.700Z,84.30
2019-03-23T07:19:22.687Z,84.50
2019-03-23T07:20:22.676Z,84.09
2019-03-23T07:21:22.666Z,84.20
2019-03-23T07:22:22.671Z,83.99
2019-03-23T07:23:22.640Z,83.78
2019-03-23T07:24:22.627Z,83.99
2019-03-23T07:25:22.618Z,84.09
2019-03-23T07:26:22.605Z,83.89
2019-03-23T07:27:22.611Z,83.48
2019-03-23T07:28:22.582Z,83.33
2019-03-23T07:29:22.569Z,82.92
2019-03-23T07:30:22.558Z,82.51
2019-03-23T07:31:22.546Z,82.76
2019-03-23T07:32:22.739Z,82.62
2019-03-23T07:33:22.521Z,82.51
2019-03-23T07:34:22.510Z,82.62
2019-03-23T07:35:22.498Z,82.41
2019-03-23T07:36:22.482Z,81.79
2019-03-23T07:37:22.492Z,81.69
2019-03-23T07:38:22.460Z,82.10
2019-03-23T07:39:27.333Z,81.90
2019-03-23T07:40:23.435Z,80.77
2019-03-23T07:41:22.427Z,80.35
2019-03-23T07:42:22.438Z,80.05
2019-03-23T07:43:22.402Z,80.73
2019-03-23T07:44:22.388Z,80.35
2019-03-23T07:45:22.375Z,80.93
2019-03-23T07:46:22.364Z,80.83
2019-03-23T07:47:22.373Z,80.87
2019-03-23T07:48:22.341Z,80.77
2019-03-23T07:49:22.328Z,81.07
2019-03-23T07:50:22.317Z,81.38
2019-03-23T07:51:22.306Z,81.28
2019-03-23T07:52:22.317Z,81.04
2019-03-23T07:53:22.280Z,80.73
2019-03-23T07:54:22.272Z,80.73
2019-03-23T07:55:22.256Z,80.01
2019-03-23T07:56:22.246Z,80.11
2019-03-23T07:57:22.252Z,80.18
2019-03-23T07:58:22.224Z,80.58
2019-03-23T07:59:22.213Z,79.36
2019-03-23T08:00:22.195Z,79.19
2019-03-23T08:01:22.185Z,79.39
2019-03-23T08:02:22.190Z,79.60
2019-03-23T08:03:22.161Z,79.19
2019-03-23T08:04:22.146Z,79.60
2019-03-23T08:05:22.134Z,79.29
2019-03-23T08:06:22.125Z,79.29
2019-03-23T08:07:22.131Z,78.98
2019-03-23T08:08:22.100Z,79.15
2019-03-23T08:09:23.548Z,78.64
2019-03-23T08:10:22.076Z,78.64
2019-03-23T08:11:22.065Z,79.32
2019-03-23T08:12:22.068Z,79.11
2019-03-23T08:13:22.142Z,78.50
2019-03-23T08:14:22.048Z,77.98
2019-03-23T08:15:22.017Z,78.12
2019-03-23T08:16:22.005Z,77.78
2019-03-23T08:17:22.013Z,78.23
2019-03-23T08:18:21.982Z,78.19
2019-03-23T08:19:21.969Z,77.78
2019-03-23T08:20:21.955Z,77.98
2019-03-23T08:21:21.950Z,77.98
2019-03-23T08:22:21.950Z,77.37
2019-03-23T08:23:21.919Z,77.37
2019-03-23T08:24:21.908Z,77.33
2019-03-23T08:25:21.896Z,77.26
2019-03-23T08:26:21.882Z,76.92
2019-03-23T08:27:21.891Z,76.72
2019-03-23T08:28:21.859Z,76.92
2019-03-23T08:29:21.847Z,76.04
2019-03-23T08:30:21.836Z,76.62
2019-03-23T08:31:21.827Z,77.06
2019-03-23T08:32:21.830Z,76.92
2019-03-23T08:33:21.801Z,76.51
2019-03-23T08:34:21.788Z,76.92
2019-03-23T08:35:21.776Z,76.82
2019-03-23T08:36:21.763Z,76.62
2019-03-23T08:37:21.779Z,76.82
2019-03-23T08:38:21.742Z,76.72
2019-03-23T08:39:21.728Z,76.17
2019-03-23T08:40:21.720Z,75.18
2019-03-23T08:41:21.708Z,75.38
2019-03-23T08:42:21.716Z,75.90
2019-03-23T08:43:21.682Z,76.78
2019-03-23T08:44:21.670Z,75.35
2019-03-23T08:45:21.661Z,75.42
2019-03-23T08:46:21.648Z,75.31
2019-03-23T08:47:21.657Z,74.70
2019-03-23T08:48:21.628Z,74.70
2019-03-23T08:49:21.615Z,74.49
2019-03-23T08:50:21.605Z,74.84
2019-03-23T08:51:21.592Z,74.49
2019-03-23T08:52:21.596Z,74.39
2019-03-23T08:53:21.571Z,74.63
2019-03-23T08:54:21.554Z,74.19
2019-03-23T08:55:22.089Z,73.98
2019-03-23T08:56:21.531Z,73.88
2019-03-23T08:57:21.540Z,74.29
2019-03-23T08:58:21.509Z,74.36
2019-03-23T08:59:21.496Z,73.95
2019-03-23T09:00:21.486Z,73.54
2019-03-23T09:01:21.473Z,73.23
2019-03-23T09:02:21.920Z,72.82
2019-03-23T09:03:21.450Z,72.72
2019-03-23T09:04:21.441Z,72.31
2019-03-23T09:05:21.428Z,71.69
2019-03-23T09:06:21.415Z,72.58
2019-03-23T09:07:21.405Z,72.58
2019-03-23T09:08:21.409Z,71.83
2019-03-23T09:09:21.380Z,71.73
2019-03-23T09:10:21.368Z,72.07
2019-03-23T09:11:21.358Z,72.24
2019-03-23T09:12:21.348Z,71.62
2019-03-23T09:13:21.351Z,71.32
2019-03-23T09:14:23.435Z,71.32
2019-03-23T09:15:21.314Z,71.66
2019-03-23T09:16:21.301Z,72.45
2019-03-23T09:17:21.290Z,72.65
2019-03-23T09:18:21.295Z,71.94
2019-03-23T09:19:21.305Z,71.12
2019-03-23T09:20:21.253Z,71.12
2019-03-23T09:21:21.242Z,71.32
2019-03-23T09:22:21.229Z,71.77
2019-03-23T09:23:21.239Z,72.17
2019-03-23T09:24:21.208Z,72.28
2019-03-23T09:25:21.196Z,72.52
2019-03-23T09:26:21.187Z,72.92
2019-03-23T09:27:21.170Z,73.85
2019-03-23T09:28:21.179Z,73.71
2019-03-23T09:29:21.146Z,72.38
2019-03-23T09:30:21.135Z,72.78
2019-03-23T09:31:21.126Z,72.69
2019-03-23T09:32:21.113Z,72.55
2019-03-23T09:33:21.117Z,72.04
2019-03-23T09:34:21.091Z,71.83
2019-03-23T09:35:21.273Z,71.12
2019-03-23T09:36:22.997Z,71.77
2019-03-23T09:37:21.052Z,71.73
2019-03-23T09:38:21.065Z,71.86
2019-03-23T09:39:21.029Z,71.62
2019-03-23T09:40:21.020Z,72.04
2019-03-23T09:41:21.006Z,72.28
2019-03-23T09:42:20.996Z,71.22
2019-03-23T09:43:21.003Z,71.42
2019-03-23T09:44:20.973Z,71.94
2019-03-23T09:45:20.973Z,71.94
2019-03-23T09:46:20.948Z,71.53
2019-03-23T09:47:20.940Z,71.53
2019-03-23T09:48:20.944Z,71.32
2019-03-23T09:49:22.085Z,71.53
2019-03-23T09:50:20.903Z,71.42
2019-03-23T09:51:20.891Z,71.42
2019-03-23T09:52:20.877Z,71.42
2019-03-23T09:53:20.885Z,71.42
2019-03-23T09:54:20.856Z,71.42
2019-03-23T09:55:20.844Z,71.42
2019-03-23T09:56:20.833Z,71.53
2019-03-23T09:57:20.820Z,71.22
2019-03-23T09:58:20.827Z,70.71
2019-03-23T09:59:20.794Z,71.62
2019-03-23T10:00:20.785Z,71.39
2019-03-23T10:01:20.772Z,70.91
2019-03-23T10:02:20.760Z,71.42
2019-03-23T10:03:20.768Z,70.88
2019-03-23T10:04:20.736Z,70.67
2019-03-23T10:05:20.726Z,70.47
2019-03-23T10:06:20.712Z,70.98
2019-03-23T10:07:20.700Z,70.78
2019-03-23T10:08:20.709Z,70.57
2019-03-23T10:09:20.680Z,70.67
2019-03-23T10:10:22.018Z,70.16
2019-03-23T10:11:20.657Z,70.37
2019-03-23T10:12:20.643Z,70.37
2019-03-23T10:13:20.651Z,70.84
2019-03-23T10:14:20.621Z,71.19
2019-03-23T10:15:20.621Z,70.78
2019-03-23T10:16:20.597Z,70.57
2019-03-23T10:17:20.584Z,70.67
2019-03-23T10:18:20.593Z,70.71
2019-03-23T10:19:20.561Z,70.57
2019-03-23T10:20:20.550Z,70.37
2019-03-23T10:21:20.537Z,71.39
2019-03-23T10:22:20.525Z,70.95
2019-03-23T10:23:20.532Z,70.78
2019-03-23T10:24:20.504Z,71.05
2019-03-23T10:25:20.497Z,70.84
2019-03-23T10:26:20.480Z,70.43
2019-03-23T10:27:20.467Z,69.93
2019-03-23T10:28:20.475Z,70.54
2019-03-23T10:29:20.445Z,70.10
2019-03-23T10:30:20.434Z,69.42
2019-03-23T10:31:20.422Z,69.31
2019-03-23T10:32:20.408Z,69.48
2019-03-23T10:33:20.418Z,69.28
2019-03-23T10:34:20.388Z,69.93
2019-03-23T10:35:20.373Z,69.07
2019-03-23T10:36:20.360Z,69.07
2019-03-23T10:37:20.348Z,69.38
2019-03-23T10:38:20.355Z,68.66
2019-03-23T10:39:20.324Z,68.87
2019-03-23T10:40:20.312Z,68.87
2019-03-23T10:41:20.306Z,69.28
2019-03-23T10:42:20.290Z,68.97
2019-03-23T10:43:20.295Z,68.77
2019-03-23T10:44:20.265Z,69.28
2019-03-23T10:45:20.254Z,70.03
2019-03-23T10:46:20.244Z,69.52
2019-03-23T10:47:20.263Z,69.28
2019-03-23T10:48:20.239Z,69.07
2019-03-23T10:49:20.206Z,69.52
2019-03-23T10:50:20.194Z,69.42
2019-03-23T10:51:20.184Z,69.11
2019-03-23T10:52:20.172Z,68.80
2019-03-23T10:53:23.165Z,68.57
2019-03-23T10:54:20.151Z,68.26
2019-03-23T10:55:20.137Z,69.07
2019-03-23T10:56:20.123Z,69.21
2019-03-23T10:57:20.124Z,69.42
2019-03-23T10:58:20.121Z,69.52
2019-03-23T10:59:20.092Z,69.52
2019-03-23T11:00:20.080Z,69.59
2019-03-23T11:01:20.063Z,68.53
2019-03-23T11:02:20.057Z,67.89
2019-03-23T11:03:20.066Z,67.01
2019-03-23T11:04:20.039Z,65.86
2019-03-23T11:05:20.018Z,64.67
2019-03-23T11:06:20.005Z,63.76
2019-03-23T11:07:19.994Z,62.37
2019-03-23T11:08:19.983Z,62.37
2019-03-23T11:09:19.999Z,61.15
2019-03-23T11:10:19.967Z,61.25
2019-03-23T11:11:19.949Z,61.56
2019-03-23T11:12:19.934Z,61.76
2019-03-23T11:13:19.923Z,61.87
2019-03-23T11:14:19.934Z,61.74
2019-03-23T11:15:19.899Z,61.74
2019-03-23T11:16:19.891Z,60.41
2019-03-23T11:17:19.879Z,60.82
2019-03-23T11:18:19.867Z,61.79
2019-03-23T11:19:19.873Z,61.76
2019-03-23T11:20:19.846Z,61.15
2019-03-23T11:21:19.830Z,61.56
2019-03-23T11:22:19.816Z,60.72
2019-03-23T11:23:19.806Z,60.89
2019-03-23T11:24:19.814Z,61.07
2019-03-23T11:25:19.783Z,59.31
2019-03-23T11:26:19.770Z,57.68
2019-03-23T11:27:19.758Z,57.46
2019-03-23T11:28:19.748Z,56.85
2019-03-23T11:29:19.756Z,57.76
2019-03-23T11:30:19.726Z,58.17
2019-03-23T11:31:19.710Z,57.53
2019-03-23T11:32:19.701Z,57.03
2019-03-23T11:33:19.688Z,57.03
2019-03-23T11:34:19.699Z,57.03
2019-03-23T11:35:19.685Z,56.92
2019-03-23T11:36:19.653Z,56.72
2019-03-23T11:37:19.732Z,56.49
2019-03-23T11:38:19.639Z,56.72
2019-03-23T11:39:19.626Z,56.72
2019-03-23T11:40:19.634Z,57.03
2019-03-23T11:41:19.595Z,56.72
2019-03-23T11:42:19.580Z,57.03
2019-03-23T11:43:19.570Z,57.97
2019-03-23T11:44:19.565Z,58.06
2019-03-23T11:45:19.562Z,56.74
2019-03-23T11:46:19.532Z,57.15
2019-03-23T11:47:19.530Z,56.74
2019-03-23T11:48:19.510Z,57.25
2019-03-23T11:49:19.504Z,57.73
2019-03-23T11:50:19.514Z,57.03
2019-03-23T11:51:19.476Z,56.90
2019-03-23T11:52:19.462Z,56.67
2019-03-23T11:53:19.472Z,55.63
2019-03-23T11:54:19.442Z,53.75
2019-03-23T11:55:19.433Z,53.40
2019-03-23T11:56:19.437Z,51.93
2019-03-23T11:57:19.408Z,51.12
2019-03-23T11:58:19.393Z,50.59
2019-03-23T11:59:19.382Z,50.04
2019-03-23T12:00:19.374Z,49.04
2019-03-23T12:01:19.384Z,48.73
2019-03-23T12:02:19.345Z,49.46
2019-03-23T12:03:19.340Z,50.49
2019-03-23T12:04:19.324Z,51.63
2019-03-23T12:05:19.313Z,52.64
2019-03-23T12:06:19.315Z,52.46
2019-03-23T12:07:19.288Z,51.76
2019-03-23T12:08:19.274Z,51.53
2019-03-23T12:09:19.269Z,50.09
2019-03-23T12:10:19.258Z,49.27
2019-03-23T12:11:19.266Z,45.83
2019-03-23T12:12:19.246Z,44.23
2019-03-23T12:13:19.224Z,45.07
2019-03-23T12:14:19.203Z,45.63
2019-03-23T12:15:19.191Z,44.89
2019-03-23T12:16:19.198Z,44.02
2019-03-23T12:17:19.170Z,42.93
2019-03-23T12:18:19.159Z,40.39
2019-03-23T12:19:19.148Z,39.69
2019-03-23T12:20:19.139Z,38.68
2019-03-23T12:21:19.143Z,38.56
2019-03-23T12:22:19.112Z,39.48
2019-03-23T12:23:19.104Z,39.11
2019-03-23T12:24:19.089Z,40.75
2019-03-23T12:25:19.078Z,40.77
2019-03-23T12:26:19.080Z,41.99
2019-03-23T12:27:19.063Z,42.18
2019-03-23T12:28:19.040Z,41.99
2019-03-23T12:29:19.028Z,40.69
2019-03-23T12:30:19.020Z,40.97
2019-03-23T12:31:19.047Z,41.39
2019-03-23T12:32:18.998Z,42.63
2019-03-23T12:33:18.989Z,43.56
2019-03-23T12:34:18.971Z,43.58
2019-03-23T12:35:18.960Z,44.63
2019-03-23T12:36:18.950Z,45.35
2019-03-23T12:37:18.953Z,46.20
2019-03-23T12:38:18.925Z,46.33
2019-03-23T12:39:18.913Z,46.95
2019-03-23T12:40:18.901Z,46.75
2019-03-23T12:41:23.278Z,46.87
2019-03-23T12:42:18.897Z,47.78
2019-03-23T12:43:18.870Z,47.90
2019-03-23T12:44:18.855Z,48.02
2019-03-23T12:45:18.846Z,48.75
2019-03-23T12:46:18.862Z,50.01
2019-03-23T12:47:18.827Z,50.72
2019-03-23T12:48:18.809Z,51.15
2019-03-23T12:49:18.796Z,50.04
2019-03-23T12:50:18.785Z,49.89
2019-03-23T12:51:18.792Z,48.46
2019-03-23T12:52:18.763Z,45.98